createdAt,value
2022-09-05T00:02:03.372Z,22.60
2022-09-05T00:05:07.231Z,22.60
2022-09-05T00:07:58.713Z,22.50
2022-09-05T00:11:18.084Z,22.30
2022-09-05T00:14:09.419Z,22.20
2022-09-05T00:16:55.427Z,22.30
2022-09-05T00:24:19.104Z,22.30
2022-09-05T00:24:34.404Z,22.40
2022-09-05T00:25:56.656Z,22.40
2022-09-05T00:29:04.593Z,22.40
2022-09-05T00:32:06.821Z,22.40
2022-09-05T00:35:06.196Z,22.30
2022-09-05T00:37:40.586Z,22.20
2022-09-05T00:40:41.826Z,22.20
2022-09-05T00:43:16.966Z,22.10
2022-09-05T00:45:59.152Z,22.10
2022-09-05T00:48:49.806Z,22.10
2022-09-05T00:51:17.227Z,22.10
2022-09-05T00:54:29.910Z,22.10
2022-09-05T00:57:20.163Z,22.00
2022-09-05T01:00:16.435Z,21.90
2022-09-05T01:03:06.022Z,21.90
2022-09-05T01:06:01.099Z,21.90
2022-09-05T01:09:07.763Z,21.90
2022-09-05T01:12:11.596Z,21.80
2022-09-05T01:15:14.776Z,21.80
2022-09-05T01:18:00.392Z,21.60
2022-09-05T01:20:38.483Z,21.50
2022-09-05T01:23:32.978Z,21.50
2022-09-05T01:26:21.620Z,21.50
2022-09-05T01:29:22.477Z,21.50
2022-09-05T01:32:15.737Z,21.60
2022-09-05T01:35:21.897Z,21.60
2022-09-05T01:37:54.557Z,21.50
2022-09-05T01:40:25.164Z,21.50
2022-09-05T01:43:02.540Z,21.50
2022-09-05T01:46:11.001Z,21.50
2022-09-05T01:49:09.086Z,21.40
2022-09-05T01:52:10.537Z,21.30
2022-09-05T01:54:45.809Z,21.30
2022-09-05T01:57:34.657Z,21.20
2022-09-05T02:00:25.697Z,21.00
2022-09-05T02:03:11.533Z,20.80
2022-09-05T02:05:54.157Z,20.70
2022-09-05T02:09:10.297Z,20.80
2022-09-05T02:11:43.869Z,20.90
2022-09-05T02:14:24.305Z,21.10
2022-09-05T02:17:50.625Z,21.10
2022-09-05T02:20:28.297Z,21.10
2022-09-05T02:23:42.489Z,21.10
2022-09-05T02:26:20.976Z,21.00
2022-09-05T02:28:55.327Z,21.00
2022-09-05T02:31:43.070Z,21.00
2022-09-05T02:34:45.097Z,21.10
2022-09-05T02:41:01.195Z,21.00
2022-09-05T02:45:07.889Z,20.90
2022-09-05T02:45:09.337Z,20.70
2022-09-05T02:46:25.326Z,20.60
2022-09-05T02:50:33.447Z,20.70
2022-09-05T02:57:29.510Z,20.70
2022-09-05T02:57:42.664Z,20.80
2022-09-05T02:58:22.017Z,20.90
2022-09-05T03:01:16.132Z,21.00
2022-09-05T03:04:14.378Z,21.00
2022-09-05T03:06:53.536Z,21.00
2022-09-05T03:10:05.157Z,21.10
2022-09-05T03:12:52.932Z,21.00
2022-09-05T03:16:09.335Z,21.00
2022-09-05T03:19:01.456Z,21.10
2022-09-05T03:21:56.457Z,21.10
2022-09-05T03:24:55.536Z,21.10
2022-09-05T03:27:29.150Z,21.10
2022-09-05T03:30:02.506Z,21.10
2022-09-05T03:33:01.817Z,21.10
2022-09-05T03:36:18.987Z,21.00
2022-09-05T03:39:05.827Z,20.90
2022-09-05T03:41:54.557Z,20.80
2022-09-05T03:44:44.577Z,20.80
2022-09-05T03:47:44.497Z,20.70
2022-09-05T03:53:42.103Z,20.70
2022-09-05T03:57:28.078Z,20.70
2022-09-05T03:57:32.391Z,20.70
2022-09-05T04:00:10.179Z,20.70
2022-09-05T04:08:05.844Z,20.70
2022-09-05T04:08:27.566Z,20.70
2022-09-05T04:09:03.098Z,20.70
2022-09-05T04:11:39.419Z,20.80
2022-09-05T04:14:34.378Z,20.80
2022-09-05T04:17:36.608Z,20.90
2022-09-05T04:20:40.670Z,20.90
2022-09-05T04:23:24.975Z,20.90
2022-09-05T04:26:11.464Z,20.90
2022-09-05T04:29:00.027Z,21.00
2022-09-05T04:31:45.583Z,21.00
2022-09-05T04:34:34.201Z,21.10
2022-09-05T04:37:08.768Z,21.20
2022-09-05T04:39:37.384Z,21.20
2022-09-05T04:42:28.027Z,21.30
2022-09-05T04:45:17.458Z,21.30
2022-09-05T04:47:55.448Z,21.30
2022-09-05T04:50:25.290Z,21.30
2022-09-05T04:53:04.814Z,21.30
2022-09-05T04:55:50.981Z,21.40
2022-09-05T04:58:56.944Z,21.40
2022-09-05T05:06:01.971Z,21.30
2022-09-05T05:06:15.113Z,21.30
2022-09-05T05:07:34.128Z,21.30
2022-09-05T05:10:28.238Z,21.40
2022-09-05T05:18:01.253Z,21.30
2022-09-05T05:18:14.227Z,21.30
2022-09-05T05:19:21.966Z,21.20
2022-09-05T05:22:00.469Z,21.20
2022-09-05T05:24:35.468Z,21.20
2022-09-05T05:27:22.099Z,21.30
2022-09-05T05:29:58.328Z,21.30
2022-09-05T05:32:45.882Z,21.30
2022-09-05T05:35:19.427Z,21.30
2022-09-05T05:38:07.898Z,21.30
2022-09-05T05:40:50.825Z,21.30
2022-09-05T05:43:27.787Z,21.20
2022-09-05T05:45:59.360Z,21.20
2022-09-05T05:48:35.668Z,21.30
2022-09-05T05:51:47.629Z,21.30
2022-09-05T05:54:40.207Z,21.40
2022-09-05T05:57:35.987Z,21.40
2022-09-05T06:00:24.495Z,21.40
2022-09-05T06:03:33.786Z,21.40
2022-09-05T06:06:13.398Z,21.50
2022-09-05T06:14:40.377Z,21.50
2022-09-05T06:14:57.128Z,21.50
2022-09-05T06:15:57.322Z,21.60
2022-09-05T06:18:45.648Z,21.60
2022-09-05T06:22:10.743Z,21.70
2022-09-05T06:24:31.339Z,21.80
2022-09-05T06:27:31.428Z,21.90
2022-09-05T06:30:20.429Z,21.90
2022-09-05T06:32:58.340Z,22.00
2022-09-05T06:35:35.508Z,22.10
2022-09-05T06:38:37.908Z,22.20
2022-09-05T06:41:39.197Z,22.30
2022-09-05T06:44:28.250Z,22.50
2022-09-05T06:47:23.820Z,22.50
2022-09-05T06:50:24.512Z,22.60
2022-09-05T06:53:19.829Z,22.70
2022-09-05T06:55:59.737Z,22.70
2022-09-05T06:59:01.130Z,22.90
2022-09-05T07:01:35.720Z,22.90
2022-09-05T07:05:37.564Z,22.90
2022-09-05T07:07:53.268Z,23.00
2022-09-05T07:10:43.877Z,23.00
2022-09-05T07:14:03.830Z,23.10
2022-09-05T07:16:56.474Z,23.20
2022-09-05T07:19:39.077Z,23.30
2022-09-05T07:22:46.123Z,23.40
2022-09-05T07:25:20.177Z,23.60
2022-09-05T07:28:28.555Z,23.60
2022-09-05T07:31:03.387Z,23.70
2022-09-05T07:33:31.867Z,23.90
2022-09-05T07:36:21.327Z,24.10
2022-09-05T07:39:02.267Z,24.30
2022-09-05T07:41:43.808Z,24.50
2022-09-05T07:44:22.147Z,24.70
2022-09-05T07:47:01.868Z,25.00
2022-09-05T07:49:31.153Z,25.10
2022-09-05T07:56:52.335Z,25.40
2022-09-05T07:56:55.883Z,25.30
2022-09-05T07:57:51.265Z,25.70
2022-09-05T08:00:29.168Z,25.90
2022-09-05T08:03:09.309Z,26.00
2022-09-05T08:05:50.028Z,26.20
2022-09-05T08:08:25.484Z,26.40
2022-09-05T08:11:25.069Z,26.30
2022-09-05T08:14:27.064Z,26.30
2022-09-05T08:16:47.590Z,26.50
2022-09-05T08:19:54.508Z,26.60
2022-09-05T08:22:31.069Z,26.80
2022-09-05T08:25:04.027Z,26.90
2022-09-05T08:28:16.937Z,27.20
2022-09-05T08:30:50.011Z,27.50
2022-09-05T08:33:21.187Z,27.40
2022-09-05T08:36:22.329Z,27.50
2022-09-05T08:38:51.327Z,27.70
2022-09-05T08:41:42.952Z,28.00
2022-09-05T08:46:44.298Z,28.20
2022-09-05T08:48:11.068Z,28.30
2022-09-05T08:51:02.948Z,28.30
2022-09-05T08:54:00.890Z,28.40
2022-09-05T08:56:46.127Z,28.70
2022-09-05T08:59:32.514Z,29.00
2022-09-05T09:02:46.460Z,29.10
2022-09-05T09:05:17.706Z,29.30
2022-09-05T09:08:15.910Z,29.40
2022-09-05T09:11:02.620Z,29.60
2022-09-05T09:13:54.185Z,29.80
2022-09-05T09:16:53.749Z,29.90
2022-09-05T09:19:47.108Z,30.20
2022-09-05T09:22:17.377Z,30.30
2022-09-05T09:25:14.926Z,30.40
2022-09-05T09:28:46.441Z,30.60
2022-09-05T09:30:53.368Z,30.50
2022-09-05T09:33:37.227Z,30.60
2022-09-05T09:36:34.578Z,30.70
2022-09-05T09:39:38.784Z,30.80
2022-09-05T09:42:37.407Z,30.90
2022-09-05T09:45:29.038Z,31.10
2022-09-05T09:48:08.878Z,31.30
2022-09-05T09:50:58.240Z,31.40
2022-09-05T09:53:39.167Z,31.60
2022-09-05T09:56:37.477Z,31.70
2022-09-05T09:59:13.757Z,31.80
2022-09-05T10:03:17.090Z,31.60
2022-09-05T10:10:33.266Z,31.80
2022-09-05T10:10:53.557Z,31.80
2022-09-05T10:11:53.809Z,31.80
2022-09-05T10:14:50.864Z,31.90
2022-09-05T10:17:24.987Z,32.00
2022-09-05T10:20:29.302Z,32.00
2022-09-05T10:23:18.180Z,32.10
2022-09-05T10:26:04.120Z,32.20
2022-09-05T10:28:46.077Z,32.40
2022-09-05T10:33:41.935Z,32.50
2022-09-05T10:35:17.161Z,32.60
2022-09-05T10:37:14.367Z,32.60
2022-09-05T10:39:47.505Z,32.70
2022-09-05T10:42:17.408Z,32.70
2022-09-05T10:44:56.710Z,32.80
2022-09-05T10:47:32.759Z,32.90
2022-09-05T10:50:21.167Z,33.00
2022-09-05T10:52:51.387Z,33.10
2022-09-05T10:55:30.687Z,33.10
2022-09-05T10:59:20.673Z,33.20
2022-09-05T11:02:26.499Z,33.30
2022-09-05T11:04:50.817Z,33.20
2022-09-05T11:07:36.590Z,33.20
2022-09-05T11:10:24.587Z,33.30
2022-09-05T11:13:15.947Z,33.30
2022-09-05T11:16:06.041Z,33.50
2022-09-05T11:19:02.468Z,33.60
2022-09-05T11:21:32.711Z,33.50
2022-09-05T11:24:27.266Z,33.50
2022-09-05T11:27:24.966Z,33.60
2022-09-05T11:29:56.527Z,33.60
2022-09-05T11:39:51.928Z,33.70
2022-09-05T11:39:57.098Z,33.80
2022-09-05T11:40:09.609Z,33.80
2022-09-05T11:42:33.617Z,34.00
2022-09-05T11:45:09.737Z,33.90
2022-09-05T11:47:46.199Z,34.00
2022-09-05T11:50:39.858Z,34.00
2022-09-05T11:53:13.448Z,34.10
2022-09-05T11:56:14.788Z,34.10
2022-09-05T11:59:05.107Z,34.20
2022-09-05T12:01:53.677Z,34.30
2022-09-05T12:05:48.789Z,34.40
2022-09-05T12:08:00.412Z,34.40
2022-09-05T12:11:15.532Z,34.50
2022-09-05T12:13:48.597Z,34.60
2022-09-05T12:16:47.789Z,34.50
2022-09-05T12:19:52.173Z,34.50
2022-09-05T12:22:35.344Z,34.50
2022-09-05T12:27:39.425Z,34.60
2022-09-05T12:29:32.961Z,34.60
2022-09-05T12:32:58.070Z,34.60
2022-09-05T12:36:07.080Z,34.70
2022-09-05T12:40:54.087Z,34.70
2022-09-05T12:41:36.874Z,34.70
2022-09-05T12:44:39.175Z,34.70
2022-09-05T12:46:58.015Z,34.70
2022-09-05T12:50:03.021Z,34.60
2022-09-05T12:52:34.000Z,34.50
2022-09-05T12:55:22.572Z,34.30
2022-09-05T13:01:36.559Z,34.40
2022-09-05T13:03:01.950Z,34.50
2022-09-05T13:03:59.351Z,34.70
2022-09-05T13:06:39.307Z,34.60
2022-09-05T13:09:16.870Z,34.70
2022-09-05T13:14:46.965Z,34.70
2022-09-05T13:15:07.637Z,34.70
2022-09-05T13:17:44.744Z,34.70
2022-09-05T13:20:18.374Z,34.70
2022-09-05T13:22:49.067Z,34.70
2022-09-05T13:25:25.256Z,34.30
2022-09-05T13:28:02.583Z,34.30
2022-09-05T13:31:51.090Z,34.30
2022-09-05T13:38:30.718Z,34.20
2022-09-05T13:39:19.945Z,34.20
2022-09-05T13:41:52.817Z,34.10
2022-09-05T13:44:26.554Z,34.10
2022-09-05T13:47:30.276Z,34.30
2022-09-05T13:50:07.173Z,34.00
2022-09-05T13:52:40.773Z,34.00
2022-09-05T13:55:34.434Z,34.00
2022-09-05T13:58:37.083Z,34.00
2022-09-05T14:01:25.869Z,33.80
2022-09-05T14:08:18.223Z,33.90
2022-09-05T14:11:04.292Z,33.70
2022-09-05T14:13:44.193Z,33.90
2022-09-05T14:16:21.478Z,33.90
2022-09-05T14:19:08.758Z,33.90
2022-09-05T14:21:40.573Z,33.90
2022-09-05T14:24:28.137Z,33.70
2022-09-05T14:26:59.094Z,33.60
2022-09-05T14:29:55.422Z,33.60
2022-09-05T14:37:44.465Z,33.50
2022-09-05T14:40:46.962Z,33.30
2022-09-05T14:43:56.752Z,33.20
2022-09-05T14:46:45.663Z,33.30
2022-09-05T14:49:31.706Z,33.40
2022-09-05T14:51:59.420Z,33.30
2022-09-05T15:02:49.361Z,33.20
2022-09-05T15:02:58.485Z,33.30
2022-09-05T15:03:05.539Z,33.20
2022-09-05T15:05:37.193Z,33.20
2022-09-05T15:11:24.175Z,32.90
2022-09-05T15:12:26.337Z,32.90
2022-09-05T15:14:12.542Z,32.80
2022-09-05T15:16:45.815Z,32.90
2022-09-05T15:19:54.828Z,32.80
2022-09-05T15:22:36.032Z,32.70
2022-09-05T15:25:21.960Z,32.70
2022-09-05T15:27:49.782Z,32.70
2022-09-05T15:30:35.037Z,32.60
2022-09-05T15:36:05.072Z,32.50
2022-09-05T15:38:55.262Z,32.50
2022-09-05T15:41:29.156Z,32.50
2022-09-05T15:43:58.506Z,32.50
2022-09-05T15:46:41.522Z,32.40
2022-09-05T15:49:35.542Z,32.30
2022-09-05T15:52:11.392Z,32.30
2022-09-05T15:54:54.264Z,32.10
2022-09-05T15:57:24.372Z,32.10
2022-09-05T15:59:57.470Z,32.10
2022-09-05T16:02:28.580Z,32.10
2022-09-05T16:10:34.448Z,31.90
2022-09-05T16:10:39.496Z,31.80
2022-09-05T16:12:09.236Z,31.70
2022-09-05T16:14:36.514Z,31.60
2022-09-05T16:23:20.495Z,31.50
2022-09-05T16:23:25.851Z,31.40
2022-09-05T16:23:53.109Z,31.20
2022-09-05T16:26:30.703Z,31.10
2022-09-05T16:29:01.342Z,31.00
2022-09-05T16:31:39.184Z,30.90
2022-09-05T16:34:13.330Z,30.80
2022-09-05T16:37:08.591Z,30.90
2022-09-05T16:40:03.179Z,30.70
2022-09-05T16:42:47.456Z,30.60
2022-09-05T16:45:40.281Z,30.50
2022-09-05T16:48:32.795Z,30.50
2022-09-05T16:51:15.661Z,30.50
2022-09-05T16:53:58.295Z,30.40
2022-09-05T16:56:35.633Z,30.30
2022-09-05T16:59:29.164Z,30.30
2022-09-05T17:02:10.770Z,30.20
2022-09-05T17:05:03.172Z,30.10
2022-09-05T17:08:04.353Z,30.00
2022-09-05T17:10:57.723Z,29.90
2022-09-05T17:13:52.553Z,29.80
2022-09-05T17:16:47.053Z,29.60
2022-09-05T17:19:22.326Z,29.50
2022-09-05T17:27:42.807Z,29.50
2022-09-05T17:29:27.604Z,29.30
2022-09-05T17:29:31.430Z,29.40
2022-09-05T17:33:45.241Z,29.10
2022-09-05T17:36:41.179Z,29.00
2022-09-05T17:39:45.169Z,29.00
2022-09-05T17:42:54.192Z,28.90
2022-09-05T17:45:34.122Z,28.70
2022-09-05T17:48:01.612Z,28.60
2022-09-05T17:50:33.266Z,28.50
2022-09-05T17:53:26.182Z,28.40
2022-09-05T17:55:55.262Z,28.30
2022-09-05T17:58:48.872Z,28.30
2022-09-05T18:01:23.872Z,28.30
2022-09-05T18:04:15.823Z,28.20
2022-09-05T18:06:52.783Z,28.20
2022-09-05T18:09:37.027Z,28.20
2022-09-05T18:13:12.528Z,28.20
2022-09-05T18:15:27.614Z,28.10
2022-09-05T18:17:58.306Z,27.90
2022-09-05T18:20:55.796Z,27.90
2022-09-05T18:26:41.555Z,27.80
2022-09-05T18:29:58.629Z,27.70
2022-09-05T18:33:53.266Z,27.50
2022-09-05T18:35:53.965Z,27.50
2022-09-05T18:38:50.400Z,27.30
2022-09-05T18:41:24.725Z,27.30
2022-09-05T18:44:19.970Z,27.20
2022-09-05T18:46:51.754Z,27.10
2022-09-05T18:50:22.172Z,27.10
2022-09-05T18:52:29.266Z,27.00
2022-09-05T18:56:09.683Z,26.90
2022-09-05T18:58:26.744Z,26.90
2022-09-05T19:00:55.491Z,26.80
2022-09-05T19:03:29.506Z,26.70
2022-09-05T19:08:57.906Z,26.60
2022-09-05T19:11:53.565Z,26.50
2022-09-05T19:17:23.525Z,26.30
2022-09-05T19:20:31.422Z,26.20
2022-09-05T19:23:12.049Z,26.20
2022-09-05T19:25:45.506Z,26.10
2022-09-05T19:36:48.765Z,26.10
2022-09-05T19:37:26.147Z,26.00
2022-09-05T19:42:15.925Z,25.90
2022-09-05T19:47:35.583Z,25.80
2022-09-05T19:47:36.579Z,25.70
2022-09-05T19:51:17.221Z,25.30
2022-09-05T19:54:04.930Z,25.10
2022-09-05T19:56:38.316Z,25.00
2022-09-05T19:59:19.787Z,25.00
2022-09-05T20:01:48.018Z,25.00
2022-09-05T20:04:18.934Z,25.00
2022-09-05T20:06:48.526Z,24.80
2022-09-05T20:09:21.522Z,24.70
2022-09-05T20:12:00.427Z,24.60
2022-09-05T20:14:35.849Z,24.60
2022-09-05T20:17:28.926Z,24.70
2022-09-05T20:20:12.197Z,24.80
2022-09-05T20:22:49.468Z,24.70
2022-09-05T20:25:34.811Z,24.70
2022-09-05T20:28:09.936Z,24.70
2022-09-05T20:30:45.411Z,24.70
2022-09-05T20:33:22.002Z,24.60
2022-09-05T20:43:12.031Z,24.70
2022-09-05T20:43:16.316Z,24.60
2022-09-05T20:43:31.859Z,24.60
2022-09-05T20:44:48.646Z,24.50
2022-09-05T20:53:08.388Z,24.50
2022-09-05T20:54:27.972Z,24.40
2022-09-05T20:56:06.905Z,23.80
2022-09-05T20:58:37.788Z,23.70
2022-09-05T21:01:21.555Z,23.60
2022-09-05T21:04:04.478Z,23.60
2022-09-05T21:06:36.737Z,23.50
2022-09-05T21:09:24.883Z,23.50
2022-09-05T21:11:58.760Z,23.50
2022-09-05T21:14:29.007Z,23.40
2022-09-05T21:17:04.901Z,23.40
2022-09-05T21:19:50.016Z,23.40
2022-09-05T21:22:21.679Z,23.40
2022-09-05T21:25:07.759Z,23.40
2022-09-05T21:27:35.068Z,23.50
2022-09-05T21:30:20.948Z,23.40
2022-09-05T21:32:52.838Z,23.30
2022-09-05T21:38:01.779Z,23.10
2022-09-05T21:40:29.177Z,23.00
2022-09-05T21:47:12.914Z,23.00
2022-09-05T21:47:46.243Z,23.10
2022-09-05T21:48:35.727Z,23.10
2022-09-05T21:51:13.208Z,23.20
2022-09-05T21:59:16.739Z,23.20
2022-09-05T21:59:28.691Z,23.30
2022-09-05T21:59:46.056Z,23.30
2022-09-05T22:02:17.024Z,23.20
2022-09-05T22:04:44.877Z,22.90
2022-09-05T22:07:21.643Z,22.90
2022-09-05T22:10:01.079Z,22.90
2022-09-05T22:12:36.145Z,22.90
2022-09-05T22:15:26.685Z,23.00
2022-09-05T22:18:16.690Z,23.00
2022-09-05T22:20:53.540Z,23.00
2022-09-05T22:23:38.874Z,23.00
2022-09-05T22:26:06.613Z,23.10
2022-09-05T22:28:35.302Z,23.10
2022-09-05T22:31:07.481Z,23.10
2022-09-05T22:33:36.250Z,23.10
2022-09-05T22:36:04.498Z,23.10
2022-09-05T22:38:32.702Z,23.00
2022-09-05T22:41:00.171Z,23.00
2022-09-05T22:43:27.581Z,23.00
2022-09-05T22:45:56.520Z,23.00
2022-09-05T22:48:24.150Z,23.00
2022-09-05T22:50:52.241Z,23.10
2022-09-05T22:53:19.631Z,23.10
2022-09-05T22:55:46.864Z,23.10
2022-09-05T22:58:15.161Z,23.10
2022-09-05T23:00:44.714Z,23.00
2022-09-05T23:03:12.271Z,22.90
2022-09-05T23:05:39.581Z,22.50
2022-09-05T23:08:07.223Z,22.30
2022-09-05T23:10:35.962Z,22.30
2022-09-05T23:13:08.497Z,22.40
2022-09-05T23:15:37.153Z,22.40
2022-09-05T23:18:05.371Z,22.40
2022-09-05T23:20:33.774Z,22.30
2022-09-05T23:23:04.521Z,22.10
2022-09-05T23:25:32.194Z,22.00
2022-09-05T23:28:04.382Z,21.80
2022-09-05T23:30:31.641Z,21.70
2022-09-05T23:32:58.851Z,21.70
2022-09-05T23:35:26.141Z,21.70
2022-09-05T23:37:53.321Z,21.90
2022-09-05T23:40:23.170Z,22.10
2022-09-05T23:42:55.768Z,22.20
2022-09-05T23:45:24.591Z,22.40
2022-09-05T23:47:52.371Z,22.50
2022-09-05T23:50:20.785Z,22.50
2022-09-05T23:52:48.562Z,22.50
2022-09-05T23:55:18.460Z,22.50
2022-09-05T23:57:46.451Z,22.50
